createdAt,value
2019-04-05T00:02:14.523Z,2.72
2019-04-05T00:04:42.755Z,2.40
2019-04-05T00:07:10.968Z,2.37
2019-04-05T00:09:39.196Z,2.52
2019-04-05T00:12:07.409Z,2.45
2019-04-05T00:14:35.636Z,2.05
2019-04-05T00:17:03.963Z,2.40
2019-04-05T00:19:32.187Z,3.47
2019-04-05T00:22:00.404Z,2.80
2019-04-05T00:24:28.628Z,2.20
2019-04-05T00:26:56.844Z,2.45
2019-04-05T00:29:25.069Z,2.50
2019-04-05T00:31:53.286Z,2.50
2019-04-05T00:34:21.600Z,2.65
2019-04-05T00:36:49.815Z,2.65
2019-04-05T00:39:18.049Z,3.12
2019-04-05T00:41:46.265Z,2.72
2019-04-05T00:44:14.505Z,2.72
2019-04-05T00:46:44.727Z,3.00
2019-04-05T00:49:12.660Z,3.10
2019-04-05T00:51:40.884Z,3.25
2019-04-05T00:54:09.100Z,2.58
2019-04-05T00:56:37.329Z,2.52
2019-04-05T00:59:05.544Z,2.90
2019-04-05T01:01:33.776Z,3.47
2019-04-05T01:04:01.986Z,3.70
2019-04-05T01:06:30.212Z,2.70
2019-04-05T01:08:58.431Z,2.70
2019-04-05T01:11:26.661Z,2.80
2019-04-05T01:13:54.876Z,2.98
2019-04-05T01:16:23.104Z,2.70
2019-04-05T01:18:51.321Z,2.95
2019-04-05T01:21:20.020Z,3.20
2019-04-05T01:23:49.108Z,2.83
2019-04-05T01:26:17.773Z,2.70
2019-04-05T01:28:45.996Z,4.15
2019-04-05T01:31:14.220Z,3.10
2019-04-05T01:33:42.441Z,3.10
2019-04-05T01:36:10.672Z,2.92
2019-04-05T01:38:39.209Z,3.27
2019-04-05T01:41:07.437Z,2.75
2019-04-05T01:43:35.657Z,2.72
2019-04-05T01:46:03.883Z,2.80
2019-04-05T01:48:32.099Z,3.17
2019-04-05T01:51:00.327Z,2.70
2019-04-05T01:53:28.612Z,3.20
2019-04-05T01:55:57.145Z,3.25
2019-04-05T01:58:25.363Z,3.20
2019-04-05T02:00:53.596Z,3.05
2019-04-05T02:03:21.813Z,3.20
2019-04-05T02:05:50.032Z,3.20
2019-04-05T02:08:18.248Z,2.90
2019-04-05T02:10:46.477Z,3.37
2019-04-05T02:13:14.697Z,3.27
2019-04-05T02:15:42.921Z,3.27
2019-04-05T02:18:11.136Z,3.27
2019-04-05T02:20:39.364Z,3.25
2019-04-05T02:23:07.582Z,3.77
2019-04-05T02:25:35.808Z,3.22
2019-04-05T02:28:04.027Z,3.60
2019-04-05T02:30:32.507Z,3.10
2019-04-05T02:33:00.728Z,3.33
2019-04-05T02:35:28.944Z,3.50
2019-04-05T02:37:57.355Z,3.55
2019-04-05T02:40:25.932Z,3.60
2019-04-05T02:42:54.162Z,3.75
2019-04-05T02:45:22.369Z,4.00
2019-04-05T02:47:53.510Z,3.25
2019-04-05T02:50:22.101Z,4.12
2019-04-05T02:52:50.332Z,3.15
2019-04-05T02:55:18.549Z,3.62
2019-04-05T02:57:46.776Z,3.12
2019-04-05T03:00:14.994Z,3.35
2019-04-05T03:02:43.216Z,3.65
2019-04-05T03:05:11.432Z,3.60
2019-04-05T03:07:39.665Z,3.75
2019-04-05T03:10:08.213Z,3.20
2019-04-05T03:12:36.434Z,3.30
2019-04-05T03:15:06.485Z,3.52
2019-04-05T03:17:34.716Z,3.27
2019-04-05T03:20:02.924Z,3.12
2019-04-05T03:22:31.153Z,3.02
2019-04-05T03:24:59.368Z,3.50
2019-04-05T03:27:30.997Z,3.15
2019-04-05T03:29:59.221Z,3.20
2019-04-05T03:32:27.467Z,3.15
2019-04-05T03:34:55.945Z,3.40
2019-04-05T03:37:24.333Z,4.20
2019-04-05T03:39:52.550Z,4.70
2019-04-05T03:42:20.778Z,4.05
2019-04-05T03:44:49.007Z,3.65
2019-04-05T03:47:17.230Z,3.52
2019-04-05T03:49:45.919Z,4.20
2019-04-05T03:52:14.205Z,3.75
2019-04-05T03:54:42.412Z,3.95
2019-04-05T03:57:10.642Z,3.58
2019-04-05T03:59:38.863Z,3.47
2019-04-05T04:02:07.084Z,3.95
2019-04-05T04:04:35.301Z,4.08
2019-04-05T04:07:03.533Z,5.12
2019-04-05T04:09:31.750Z,3.35
2019-04-05T04:12:00.381Z,3.37
2019-04-05T04:14:28.604Z,3.83
2019-04-05T04:17:11.583Z,3.52
2019-04-05T04:19:26.837Z,3.90
2019-04-05T04:22:10.280Z,4.30
2019-04-05T04:24:38.547Z,3.85
2019-04-05T04:27:06.773Z,4.28
2019-04-05T04:29:34.992Z,7.05
2019-04-05T04:32:03.216Z,5.40
2019-04-05T04:34:31.803Z,3.55
2019-04-05T04:37:00.029Z,4.00
2019-04-05T04:39:28.245Z,3.83
2019-04-05T04:41:56.465Z,3.27
2019-04-05T04:44:24.688Z,3.58
2019-04-05T04:46:53.266Z,4.85
2019-04-05T04:49:21.493Z,3.95
2019-04-05T04:51:49.713Z,3.55
2019-04-05T04:54:17.937Z,3.92
2019-04-05T04:56:46.172Z,4.70
2019-04-05T04:59:14.401Z,5.67
2019-04-05T05:01:42.616Z,5.20
2019-04-05T05:04:10.850Z,5.62
2019-04-05T05:06:39.076Z,4.67
2019-04-05T05:09:07.574Z,4.30
2019-04-05T05:11:35.961Z,4.22
2019-04-05T05:14:04.188Z,4.58
2019-04-05T05:16:32.405Z,4.47
2019-04-05T05:19:00.640Z,4.20
2019-04-05T05:21:28.941Z,4.78
2019-04-05T05:23:57.169Z,4.53
2019-04-05T05:26:25.385Z,4.40
2019-04-05T05:28:53.608Z,5.00
2019-04-05T05:31:21.826Z,4.85
2019-04-05T05:33:50.245Z,4.95
2019-04-05T05:36:18.424Z,5.58
2019-04-05T05:38:46.652Z,5.40
2019-04-05T05:41:14.873Z,5.97
2019-04-05T05:43:43.103Z,5.35
2019-04-05T05:46:11.316Z,5.40
2019-04-05T05:48:39.551Z,5.20
2019-04-05T05:51:07.759Z,5.62
2019-04-05T05:53:35.985Z,5.40
2019-04-05T05:56:04.202Z,5.40
2019-04-05T05:58:32.432Z,5.85
2019-04-05T06:01:00.648Z,5.95
2019-04-05T06:03:28.876Z,5.90
2019-04-05T06:06:04.280Z,5.20
2019-04-05T06:08:29.183Z,5.50
2019-04-05T06:10:57.493Z,5.45
2019-04-05T06:13:25.696Z,5.12
2019-04-05T06:15:53.914Z,4.87
2019-04-05T06:18:22.136Z,5.60
2019-04-05T06:20:50.351Z,5.47
2019-04-05T06:23:18.581Z,5.00
2019-04-05T06:25:46.796Z,5.80
2019-04-05T06:28:15.352Z,5.62
2019-04-05T06:30:43.568Z,5.90
2019-04-05T06:33:11.796Z,5.85
2019-04-05T06:35:40.031Z,6.55
2019-04-05T06:38:08.258Z,7.15
2019-04-05T06:40:41.119Z,6.12
2019-04-05T06:43:06.855Z,6.50
2019-04-05T06:45:35.321Z,5.60
2019-04-05T06:48:03.568Z,4.85
2019-04-05T06:50:31.779Z,6.30
2019-04-05T06:53:00.012Z,5.70
2019-04-05T06:55:28.238Z,5.17
2019-04-05T06:57:56.548Z,7.28
2019-04-05T07:00:29.632Z,6.40
2019-04-05T07:02:58.917Z,6.03
2019-04-05T07:05:27.201Z,6.17
2019-04-05T07:07:55.427Z,5.95
2019-04-05T07:10:23.648Z,6.33
2019-04-05T07:12:51.876Z,8.63
2019-04-05T07:15:20.264Z,5.85
2019-04-05T07:17:48.482Z,6.45
2019-04-05T07:20:16.709Z,6.08
2019-04-05T07:22:44.924Z,7.25
2019-04-05T07:25:13.155Z,6.87
2019-04-05T07:27:41.372Z,6.92
2019-04-05T07:30:09.608Z,7.95
2019-04-05T07:32:37.825Z,7.08
2019-04-05T07:35:06.325Z,7.03
2019-04-05T07:37:34.544Z,8.18
2019-04-05T07:40:02.773Z,7.33
2019-04-05T07:42:30.989Z,7.00
2019-04-05T07:44:59.220Z,6.95
2019-04-05T07:47:27.432Z,7.10
2019-04-05T07:49:55.955Z,8.03
2019-04-05T07:52:24.168Z,8.70
2019-04-05T07:54:52.837Z,6.97
2019-04-05T07:57:21.053Z,7.58
2019-04-05T07:59:49.311Z,8.10
2019-04-05T08:02:17.525Z,6.83
2019-04-05T08:04:45.751Z,9.13
2019-04-05T08:07:13.968Z,7.97
2019-04-05T08:09:42.192Z,8.33
2019-04-05T08:12:10.412Z,8.50
2019-04-05T08:14:39.366Z,8.30
2019-04-05T08:17:07.678Z,8.70
2019-04-05T08:19:35.908Z,10.50
2019-04-05T08:22:04.125Z,8.65
2019-04-05T08:24:32.363Z,9.03
2019-04-05T08:27:00.573Z,10.32
2019-04-05T08:29:28.806Z,10.50
2019-04-05T08:31:57.025Z,10.63
2019-04-05T08:34:25.264Z,11.50
2019-04-05T08:36:53.471Z,10.50
2019-04-05T08:39:21.704Z,11.93
2019-04-05T08:41:49.920Z,10.48
2019-04-05T08:44:18.154Z,13.28
2019-04-05T08:46:46.373Z,11.12
2019-04-05T08:49:14.605Z,11.03
2019-04-05T08:51:42.828Z,10.38
2019-04-05T08:54:11.060Z,11.10
2019-04-05T08:56:39.276Z,9.28
2019-04-05T08:59:07.510Z,10.48
2019-04-05T09:01:35.724Z,9.93
2019-04-05T09:04:04.485Z,14.43
2019-04-05T09:06:32.721Z,9.80
2019-04-05T09:09:00.943Z,11.05
2019-04-05T09:11:29.160Z,11.03
2019-04-05T09:13:57.490Z,11.90
2019-04-05T09:16:25.765Z,10.63
2019-04-05T09:18:53.984Z,10.78
2019-04-05T09:21:22.232Z,13.32
2019-04-05T09:23:50.440Z,11.60
2019-04-05T09:26:18.685Z,14.03
2019-04-05T09:28:46.900Z,14.65
2019-04-05T09:31:15.137Z,15.23
2019-04-05T09:33:43.362Z,13.80
2019-04-05T09:36:11.849Z,13.65
2019-04-05T09:38:40.072Z,13.10
2019-04-05T09:41:08.303Z,14.55
2019-04-05T09:43:36.533Z,13.88
2019-04-05T09:46:04.768Z,12.60
2019-04-05T09:48:32.995Z,15.93
2019-04-05T09:51:01.225Z,12.65
2019-04-05T09:53:29.452Z,14.20
2019-04-05T09:55:57.942Z,15.48
2019-04-05T09:58:26.160Z,14.60
2019-04-05T10:00:54.407Z,14.25
2019-04-05T10:03:22.621Z,16.15
2019-04-05T10:05:50.860Z,16.32
2019-04-05T10:08:19.421Z,14.95
2019-04-05T10:10:47.652Z,15.20
2019-04-05T10:13:15.882Z,17.15
2019-04-05T10:15:44.112Z,15.18
2019-04-05T10:18:12.336Z,16.50
2019-04-05T10:20:40.571Z,14.90
2019-04-05T10:23:08.792Z,14.75
2019-04-05T10:25:37.024Z,16.50
2019-04-05T10:28:05.421Z,16.73
2019-04-05T10:30:33.660Z,16.95
2019-04-05T10:33:01.892Z,16.10
2019-04-05T10:35:30.133Z,15.78
2019-04-05T10:37:58.607Z,16.05
2019-04-05T10:40:26.956Z,13.70
2019-04-05T10:42:55.496Z,14.35
2019-04-05T10:45:23.913Z,12.70
2019-04-05T10:47:52.136Z,13.58
2019-04-05T10:50:21.339Z,13.13
2019-04-05T10:52:49.572Z,12.25
2019-04-05T10:55:17.805Z,10.53
2019-04-05T10:57:46.046Z,12.13
2019-04-05T11:00:16.380Z,11.95
2019-04-05T11:02:44.610Z,13.28
2019-04-05T11:05:12.837Z,12.75
2019-04-05T11:07:41.089Z,11.45
2019-04-05T11:10:10.080Z,11.38
2019-04-05T11:12:38.316Z,11.20
2019-04-05T11:15:07.391Z,12.37
2019-04-05T11:17:35.624Z,12.47
2019-04-05T11:20:20.172Z,12.37
2019-04-05T11:22:36.816Z,12.10
2019-04-05T11:25:07.039Z,9.73
2019-04-05T11:27:35.416Z,10.40
2019-04-05T11:30:05.757Z,11.95
2019-04-05T11:32:33.991Z,11.22
2019-04-05T11:35:02.229Z,9.98
2019-04-05T11:37:30.788Z,9.68
2019-04-05T11:39:59.013Z,9.38
2019-04-05T11:42:27.246Z,10.28
2019-04-05T11:44:56.247Z,10.25
2019-04-05T11:47:24.494Z,10.75
2019-04-05T11:49:54.971Z,10.88
2019-04-05T11:52:22.712Z,11.22
2019-04-05T11:54:50.933Z,9.88
2019-04-05T11:57:19.231Z,9.58
2019-04-05T11:59:48.771Z,10.70
2019-04-05T12:02:34.134Z,10.05
2019-04-05T12:05:02.433Z,12.55
2019-04-05T12:07:30.668Z,10.82
2019-04-05T12:09:58.896Z,11.03
2019-04-05T12:12:27.128Z,11.22
2019-04-05T12:14:55.364Z,9.90
2019-04-05T12:17:23.600Z,8.53
2019-04-05T12:19:51.822Z,9.08
2019-04-05T12:22:20.179Z,9.68
2019-04-05T12:24:48.552Z,10.53
2019-04-05T12:27:16.793Z,11.50
2019-04-05T12:29:45.020Z,11.95
2019-04-05T12:32:17.657Z,9.55
2019-04-05T12:34:43.792Z,10.58
2019-04-05T12:37:12.035Z,10.25
2019-04-05T12:39:40.576Z,12.40
2019-04-05T12:42:11.972Z,10.70
2019-04-05T12:44:38.802Z,11.22
2019-04-05T12:47:07.037Z,11.60
2019-04-05T12:49:35.260Z,12.30
2019-04-05T12:52:03.497Z,12.73
2019-04-05T12:54:31.716Z,11.70
2019-04-05T12:56:59.956Z,10.38
2019-04-05T12:59:28.179Z,11.90
2019-04-05T13:01:59.449Z,13.78
2019-04-05T13:04:26.624Z,11.80
2019-04-05T13:06:54.920Z,11.78
2019-04-05T13:09:23.633Z,12.82
2019-04-05T13:11:56.484Z,13.32
2019-04-05T13:14:26.195Z,13.25
2019-04-05T13:16:52.785Z,12.68
2019-04-05T13:19:21.024Z,15.68
2019-04-05T13:21:49.252Z,12.50
2019-04-05T13:24:17.492Z,12.10
2019-04-05T13:26:45.721Z,14.75
2019-04-05T13:29:13.964Z,14.33
2019-04-05T13:31:42.187Z,12.85
2019-04-05T13:34:10.445Z,12.43
2019-04-05T13:36:38.669Z,14.35
2019-04-05T13:39:07.576Z,14.30
2019-04-05T13:41:35.832Z,12.35
2019-04-05T13:44:04.064Z,13.45
2019-04-05T13:46:32.290Z,14.38
2019-04-05T13:49:00.529Z,14.15
2019-04-05T13:51:31.841Z,13.03
2019-04-05T13:53:58.725Z,12.85
2019-04-05T13:56:26.947Z,14.00
2019-04-05T13:58:55.188Z,15.75
2019-04-05T14:01:23.412Z,17.30
2019-04-05T14:03:51.977Z,16.85
2019-04-05T14:06:20.205Z,16.73
2019-04-05T14:08:48.444Z,15.50
2019-04-05T14:11:17.022Z,13.95
2019-04-05T14:13:45.252Z,15.55
2019-04-05T14:16:13.481Z,14.25
2019-04-05T14:18:45.760Z,15.25
2019-04-05T14:21:11.678Z,13.53
2019-04-05T14:23:39.908Z,14.25
2019-04-05T14:26:08.142Z,16.17
2019-04-05T14:28:36.377Z,14.00
2019-04-05T14:31:04.605Z,14.38
2019-04-05T14:33:32.900Z,14.20
2019-04-05T14:36:01.140Z,16.67
2019-04-05T14:38:31.350Z,13.60
2019-04-05T14:40:59.431Z,14.58
2019-04-05T14:43:27.653Z,14.60
2019-04-05T14:45:55.893Z,15.13
2019-04-05T14:48:27.327Z,15.53
2019-04-05T14:50:55.575Z,14.45
2019-04-05T14:53:24.057Z,13.22
2019-04-05T14:55:52.348Z,18.85
2019-04-05T14:58:20.573Z,15.83
2019-04-05T15:00:48.818Z,13.62
2019-04-05T15:03:17.353Z,14.23
2019-04-05T15:05:45.585Z,12.73
2019-04-05T15:08:13.824Z,14.70
2019-04-05T15:10:42.120Z,13.25
2019-04-05T15:13:10.348Z,15.98
2019-04-05T15:15:38.584Z,16.50
2019-04-05T15:18:06.812Z,14.87
2019-04-05T15:20:35.549Z,12.23
2019-04-05T15:23:04.011Z,13.80
2019-04-05T15:25:32.256Z,13.00
2019-04-05T15:28:00.480Z,12.70
2019-04-05T15:30:28.720Z,15.35
2019-04-05T15:32:58.594Z,14.03
2019-04-05T15:35:28.261Z,15.30
2019-04-05T15:37:57.152Z,14.70
2019-04-05T15:40:25.444Z,15.43
2019-04-05T15:42:53.704Z,14.87
2019-04-05T15:45:21.951Z,12.73
2019-04-05T15:47:52.376Z,14.65
2019-04-05T15:50:22.018Z,16.30
2019-04-05T15:52:50.764Z,14.87
2019-04-05T15:55:19.003Z,15.98
2019-04-05T15:57:47.230Z,16.42
2019-04-05T16:00:17.117Z,15.88
2019-04-05T16:02:45.358Z,15.90
2019-04-05T16:05:13.655Z,16.62
2019-04-05T16:07:41.886Z,14.13
2019-04-05T16:10:10.696Z,14.58
2019-04-05T16:12:38.925Z,14.15
2019-04-05T16:15:07.333Z,16.48
2019-04-05T16:17:35.564Z,14.53
2019-04-05T16:20:07.199Z,14.10
2019-04-05T16:22:36.014Z,15.58
2019-04-05T16:25:05.357Z,13.30
2019-04-05T16:27:33.587Z,14.33
2019-04-05T16:30:01.830Z,12.13
2019-04-05T16:32:30.144Z,14.10
2019-04-05T16:34:58.428Z,12.40
2019-04-05T16:37:26.650Z,13.95
2019-04-05T16:39:54.890Z,12.58
2019-04-05T16:42:23.193Z,13.32
2019-04-05T16:44:51.428Z,14.15
2019-04-05T16:47:19.663Z,13.88
2019-04-05T16:49:47.904Z,16.90
2019-04-05T16:52:16.145Z,12.95
2019-04-05T16:54:44.368Z,10.82
2019-04-05T16:57:12.604Z,12.40
2019-04-05T16:59:40.831Z,13.25
2019-04-05T17:02:09.070Z,12.07
2019-04-05T17:04:37.292Z,12.50
2019-04-05T17:07:05.533Z,13.45
2019-04-05T17:09:33.757Z,10.68
2019-04-05T17:12:01.988Z,10.80
2019-04-05T17:14:30.218Z,12.20
2019-04-05T17:16:58.452Z,11.95
2019-04-05T17:19:27.024Z,11.65
2019-04-05T17:21:55.263Z,11.25
2019-04-05T17:24:23.489Z,11.85
2019-04-05T17:26:51.724Z,12.37
2019-04-05T17:29:21.517Z,13.45
2019-04-05T17:31:49.771Z,12.82
2019-04-05T17:34:17.999Z,13.05
2019-04-05T17:36:46.312Z,10.95
2019-04-05T17:39:14.540Z,10.63
2019-04-05T17:41:43.054Z,12.85
2019-04-05T17:44:11.276Z,11.78
2019-04-05T17:46:39.512Z,11.00
2019-04-05T17:49:07.741Z,12.88
2019-04-05T17:51:35.974Z,11.03
2019-04-05T17:54:04.202Z,10.70
2019-04-05T17:56:32.452Z,11.40
2019-04-05T17:59:00.849Z,11.68
2019-04-05T18:01:29.088Z,12.93
2019-04-05T18:03:57.357Z,12.73
2019-04-05T18:06:25.595Z,10.95
2019-04-05T18:08:53.813Z,12.88
2019-04-05T18:11:22.058Z,12.55
2019-04-05T18:13:50.276Z,12.20
2019-04-05T18:16:18.508Z,10.25
2019-04-05T18:18:46.741Z,12.00
2019-04-05T18:21:14.977Z,15.43
2019-04-05T18:23:43.203Z,13.85
2019-04-05T18:26:11.444Z,10.75
2019-04-05T18:28:39.671Z,11.45
2019-04-05T18:31:07.905Z,12.00
2019-04-05T18:33:36.127Z,11.50
2019-04-05T18:36:04.357Z,12.18
2019-04-05T18:38:32.577Z,12.58
2019-04-05T18:41:00.797Z,11.18
2019-04-05T18:43:29.101Z,11.80
2019-04-05T18:45:57.316Z,11.57
2019-04-05T18:48:25.548Z,11.65
2019-04-05T18:50:53.768Z,13.78
2019-04-05T18:53:22.005Z,12.68
2019-04-05T18:55:50.228Z,14.93
2019-04-05T18:58:18.455Z,13.13
2019-04-05T19:00:46.676Z,12.25
2019-04-05T19:03:14.908Z,13.20
2019-04-05T19:05:43.134Z,16.70
2019-04-05T19:08:11.376Z,12.55
2019-04-05T19:10:40.081Z,13.72
2019-04-05T19:13:08.312Z,12.82
2019-04-05T19:15:36.544Z,14.25
2019-04-05T19:18:05.116Z,13.88
2019-04-05T19:20:33.344Z,14.10
2019-04-05T19:23:01.580Z,13.53
2019-04-05T19:25:29.809Z,14.13
2019-04-05T19:27:58.041Z,15.28
2019-04-05T19:50:25.944Z,12.70
2019-04-05T19:52:54.181Z,13.85
2019-04-05T19:55:22.419Z,13.70
2019-04-05T19:57:50.633Z,14.05
2019-04-05T20:00:19.330Z,15.00
2019-04-05T20:02:47.561Z,14.20
2019-04-05T20:05:15.792Z,20.12
2019-04-05T20:07:44.117Z,14.50
2019-04-05T20:10:12.337Z,13.25
2019-04-05T20:12:40.576Z,16.27
2019-04-05T20:15:08.806Z,14.05
2019-04-05T20:17:37.021Z,13.28
2019-04-05T20:20:08.310Z,15.30
2019-04-05T20:22:36.532Z,14.50
2019-04-05T20:25:05.936Z,14.45
2019-04-05T20:27:34.473Z,13.53
2019-04-05T20:30:04.544Z,12.40
2019-04-05T20:32:32.767Z,15.00
2019-04-05T20:35:01.004Z,12.75
2019-04-05T20:37:29.231Z,13.85
2019-04-05T20:39:57.476Z,12.90
2019-04-05T20:42:25.696Z,13.85
2019-04-05T20:44:53.933Z,14.75
2019-04-05T20:47:22.153Z,14.38
2019-04-05T20:49:50.429Z,13.95
2019-04-05T20:52:18.648Z,13.13
2019-04-05T20:54:46.880Z,12.85
2019-04-05T20:57:15.100Z,13.22
2019-04-05T20:59:43.336Z,13.83
2019-04-05T21:02:11.564Z,16.23
2019-04-05T21:04:39.796Z,13.85
2019-04-05T21:07:08.024Z,13.58
2019-04-05T21:09:36.277Z,13.15
2019-04-05T21:12:04.500Z,14.65
2019-04-05T21:14:33.052Z,13.45
2019-04-05T21:17:01.281Z,12.73
2019-04-05T21:19:29.517Z,13.68
2019-04-05T21:21:57.745Z,12.55
2019-04-05T21:24:35.755Z,12.75
2019-04-05T21:26:55.908Z,13.15
2019-04-05T21:29:24.139Z,14.53
2019-04-05T21:31:52.360Z,12.93
2019-04-05T21:34:20.601Z,11.63
2019-04-05T21:36:48.820Z,15.15
2019-04-05T21:39:17.060Z,14.28
2019-04-05T21:41:45.276Z,14.10
2019-04-05T21:44:13.511Z,12.93
2019-04-05T21:46:41.797Z,13.78
2019-04-05T21:49:10.033Z,16.10
2019-04-05T21:51:38.252Z,15.50
2019-04-05T21:54:06.491Z,15.53
2019-04-05T21:56:34.715Z,13.85
2019-04-05T21:59:02.944Z,16.10
2019-04-05T22:01:31.221Z,12.47
2019-04-05T22:03:59.436Z,14.55
2019-04-05T22:06:27.668Z,13.28
2019-04-05T22:08:55.888Z,13.85
2019-04-05T22:11:24.120Z,13.55
2019-04-05T22:13:52.341Z,13.32
2019-04-05T22:16:20.576Z,11.00
2019-04-05T22:18:48.792Z,11.65
2019-04-05T22:21:17.024Z,14.20
2019-04-05T22:23:45.584Z,12.65
2019-04-05T22:26:14.067Z,12.75
2019-04-05T22:28:42.287Z,14.47
2019-04-05T22:31:10.521Z,14.40
2019-04-05T22:33:39.000Z,13.83
2019-04-05T22:36:07.235Z,15.10
2019-04-05T22:38:35.453Z,13.45
2019-04-05T22:41:03.864Z,14.38
2019-04-05T22:43:32.416Z,14.70
2019-04-05T22:46:00.644Z,12.68
2019-04-05T22:48:28.948Z,15.40
2019-04-05T22:51:03.608Z,18.23
2019-04-05T22:53:31.840Z,14.40
2019-04-05T22:56:00.061Z,14.05
2019-04-05T22:58:28.280Z,14.05
2019-04-05T23:00:56.516Z,15.88
2019-04-05T23:03:24.788Z,14.55
2019-04-05T23:05:53.078Z,14.50
2019-04-05T23:08:21.299Z,16.65
2019-04-05T23:10:49.531Z,15.63
2019-04-05T23:13:17.761Z,16.07
2019-04-05T23:15:45.996Z,13.85
2019-04-05T23:18:14.220Z,15.15
2019-04-05T23:20:42.451Z,12.37
2019-04-05T23:23:10.676Z,12.35
2019-04-05T23:25:38.909Z,13.32
2019-04-05T23:28:07.133Z,13.78
2019-04-05T23:30:54.792Z,13.75
2019-04-05T23:33:23.015Z,14.10
2019-04-05T23:35:51.246Z,12.25
2019-04-05T23:38:19.806Z,13.45
2019-04-05T23:40:48.096Z,11.20
2019-04-05T23:43:16.391Z,12.82
2019-04-05T23:45:44.628Z,13.05
2019-04-05T23:48:13.098Z,13.70
2019-04-05T23:50:41.614Z,13.58
2019-04-05T23:53:09.880Z,12.53
2019-04-05T23:55:38.113Z,13.00
2019-04-05T23:58:06.342Z,13.60
